createdAt,value
2019-03-30T00:02:35.427Z,59.37
2019-03-30T00:05:07.031Z,55.70
2019-03-30T00:07:39.400Z,56.73
2019-03-30T00:10:13.350Z,52.48
2019-03-30T00:12:45.794Z,54.83
2019-03-30T00:15:20.011Z,55.98
2019-03-30T00:17:52.486Z,54.60
2019-03-30T00:20:24.777Z,55.70
2019-03-30T00:22:57.253Z,55.73
2019-03-30T00:25:29.681Z,53.42
2019-03-30T00:28:01.887Z,52.50
2019-03-30T00:30:34.712Z,45.43
2019-03-30T00:33:07.091Z,46.40
2019-03-30T00:35:39.489Z,46.08
2019-03-30T00:38:14.501Z,45.17
2019-03-30T00:40:46.825Z,44.33
2019-03-30T00:43:19.275Z,43.17
2019-03-30T00:45:51.782Z,43.33
2019-03-30T00:48:24.034Z,42.13
2019-03-30T00:50:56.342Z,41.77
2019-03-30T00:53:28.598Z,42.67
2019-03-30T00:56:00.932Z,39.48
2019-03-30T00:58:33.096Z,39.73
2019-03-30T01:01:05.462Z,38.23
2019-03-30T01:03:37.842Z,40.90
2019-03-30T01:06:10.312Z,38.15
2019-03-30T01:08:42.811Z,43.65
2019-03-30T01:11:15.103Z,37.20
2019-03-30T01:13:47.363Z,36.55
2019-03-30T01:16:19.687Z,37.35
2019-03-30T01:18:52.031Z,35.98
2019-03-30T01:21:24.268Z,37.70
2019-03-30T01:23:56.509Z,37.10
2019-03-30T01:26:28.825Z,37.33
2019-03-30T01:29:01.970Z,36.73
2019-03-30T01:31:34.290Z,38.20
2019-03-30T01:34:06.483Z,35.28
2019-03-30T01:36:38.700Z,34.85
2019-03-30T01:39:14.046Z,34.20
2019-03-30T01:41:46.308Z,35.63
2019-03-30T01:44:18.584Z,36.35
2019-03-30T01:46:50.888Z,34.55
2019-03-30T01:49:23.056Z,34.50
2019-03-30T01:51:55.377Z,35.23
2019-03-30T01:54:27.525Z,34.55
2019-03-30T01:56:59.742Z,33.98
2019-03-30T01:59:31.884Z,34.07
2019-03-30T02:02:05.052Z,34.80
2019-03-30T02:04:37.599Z,34.43
2019-03-30T02:07:09.785Z,33.90
2019-03-30T02:09:42.240Z,35.45
2019-03-30T02:12:14.628Z,36.13
2019-03-30T02:14:47.016Z,34.87
2019-03-30T02:17:20.333Z,34.30
2019-03-30T02:19:52.848Z,34.70
2019-03-30T02:22:25.282Z,34.70
2019-03-30T02:24:57.537Z,35.45
2019-03-30T02:27:29.725Z,35.65
2019-03-30T02:30:02.016Z,36.85
2019-03-30T02:32:34.981Z,36.40
2019-03-30T02:35:08.330Z,36.77
2019-03-30T02:37:40.737Z,38.08
2019-03-30T02:40:16.482Z,37.38
2019-03-30T02:42:48.793Z,37.10
2019-03-30T02:45:20.844Z,37.50
2019-03-30T02:47:53.164Z,38.17
2019-03-30T02:50:25.429Z,38.20
2019-03-30T02:52:57.829Z,38.02
2019-03-30T02:55:30.076Z,36.60
2019-03-30T02:58:02.766Z,36.70
2019-03-30T03:00:36.160Z,37.05
2019-03-30T03:03:08.787Z,34.48
2019-03-30T03:05:41.058Z,34.13
2019-03-30T03:08:13.452Z,35.08
2019-03-30T03:10:45.786Z,32.15
2019-03-30T03:13:18.020Z,32.93
2019-03-30T03:15:50.168Z,32.60
2019-03-30T03:18:22.560Z,33.42
2019-03-30T03:21:07.501Z,34.40
2019-03-30T03:23:28.534Z,31.45
2019-03-30T03:26:00.711Z,32.00
2019-03-30T03:28:33.105Z,30.55
2019-03-30T03:31:05.349Z,31.80
2019-03-30T03:33:37.861Z,30.92
2019-03-30T03:36:10.262Z,32.53
2019-03-30T03:38:42.644Z,32.78
2019-03-30T03:41:16.774Z,32.63
2019-03-30T03:43:50.261Z,32.33
2019-03-30T03:46:22.535Z,30.88
2019-03-30T03:48:54.991Z,30.37
2019-03-30T03:51:27.275Z,31.20
2019-03-30T03:53:59.549Z,30.65
2019-03-30T03:56:31.913Z,32.00
2019-03-30T03:59:04.293Z,31.40
2019-03-30T04:01:37.253Z,31.50
2019-03-30T04:04:10.788Z,31.90
2019-03-30T04:06:43.152Z,31.53
2019-03-30T04:09:17.161Z,30.10
2019-03-30T04:11:49.695Z,29.52
2019-03-30T04:14:22.094Z,29.60
2019-03-30T04:16:54.376Z,30.15
2019-03-30T04:19:26.651Z,30.68
2019-03-30T04:21:58.939Z,30.05
2019-03-30T04:24:31.252Z,29.52
2019-03-30T04:27:03.466Z,29.70
2019-03-30T04:29:35.830Z,29.55
2019-03-30T04:32:08.343Z,28.23
2019-03-30T04:34:40.792Z,27.05
2019-03-30T04:37:13.035Z,28.32
2019-03-30T04:39:45.359Z,26.33
2019-03-30T04:42:20.960Z,26.73
2019-03-30T04:44:53.321Z,27.45
2019-03-30T04:47:25.720Z,28.40
2019-03-30T04:49:58.041Z,27.05
2019-03-30T04:52:30.282Z,27.17
2019-03-30T04:55:03.815Z,27.07
2019-03-30T04:57:35.943Z,26.17
2019-03-30T05:00:09.347Z,27.37
2019-03-30T05:02:41.685Z,27.07
2019-03-30T05:05:14.771Z,28.20
2019-03-30T05:07:47.358Z,26.82
2019-03-30T05:10:19.820Z,26.93
2019-03-30T05:12:51.972Z,27.48
2019-03-30T05:15:24.163Z,26.40
2019-03-30T05:17:56.315Z,27.20
2019-03-30T05:20:28.631Z,27.73
2019-03-30T05:23:00.884Z,26.97
2019-03-30T05:25:33.072Z,26.60
2019-03-30T05:28:05.331Z,28.62
2019-03-30T05:30:37.789Z,26.33
2019-03-30T05:33:10.048Z,26.48
2019-03-30T05:35:42.604Z,25.60
2019-03-30T05:38:14.966Z,38.33
2019-03-30T05:40:47.358Z,68.37
2019-03-30T05:43:22.503Z,51.73
2019-03-30T05:45:54.840Z,54.40
2019-03-30T05:48:27.095Z,70.83
2019-03-30T05:50:59.428Z,142.07
2019-03-30T05:53:32.093Z,136.43
2019-03-30T05:56:04.277Z,42.47
2019-03-30T05:58:36.521Z,40.50
2019-03-30T06:01:08.834Z,69.07
2019-03-30T06:03:41.059Z,94.52
2019-03-30T06:06:13.655Z,96.92
2019-03-30T06:08:45.800Z,64.12
2019-03-30T06:11:18.103Z,65.57
2019-03-30T06:13:50.461Z,58.68
2019-03-30T06:16:22.843Z,122.72
2019-03-30T06:18:55.088Z,90.62
2019-03-30T06:21:27.545Z,101.83
2019-03-30T06:23:59.934Z,76.65
2019-03-30T06:26:32.336Z,74.97
2019-03-30T06:29:04.530Z,108.00
2019-03-30T06:31:36.949Z,63.23
2019-03-30T06:34:09.230Z,65.30
2019-03-30T06:36:41.949Z,98.58
2019-03-30T06:39:14.204Z,71.35
2019-03-30T06:41:46.437Z,53.53
2019-03-30T06:44:20.679Z,90.60
2019-03-30T06:46:53.677Z,70.12
2019-03-30T06:49:26.519Z,170.02
2019-03-30T06:51:58.932Z,47.77
2019-03-30T06:54:31.111Z,70.87
2019-03-30T06:57:03.311Z,67.25
2019-03-30T06:59:35.571Z,82.03
2019-03-30T07:02:07.800Z,133.72
2019-03-30T07:04:39.991Z,120.10
2019-03-30T07:07:12.502Z,53.28
2019-03-30T07:09:44.781Z,77.37
2019-03-30T07:12:17.150Z,49.67
2019-03-30T07:14:49.597Z,91.93
2019-03-30T07:17:21.908Z,50.63
2019-03-30T07:19:55.686Z,52.58
2019-03-30T07:22:28.332Z,84.90
2019-03-30T07:25:01.148Z,76.12
2019-03-30T07:27:37.734Z,70.77
2019-03-30T07:30:11.738Z,57.35
2019-03-30T07:32:44.338Z,79.25
2019-03-30T07:35:16.846Z,81.15
2019-03-30T07:37:49.418Z,125.22
2019-03-30T07:40:21.566Z,42.67
2019-03-30T07:42:53.883Z,101.65
2019-03-30T07:45:28.731Z,49.18
2019-03-30T07:48:01.257Z,49.15
2019-03-30T07:50:33.406Z,33.23
2019-03-30T07:53:05.707Z,35.00
2019-03-30T07:55:37.974Z,44.15
2019-03-30T07:58:10.355Z,44.73
2019-03-30T08:00:43.164Z,45.83
2019-03-30T08:03:15.480Z,46.90
2019-03-30T08:05:47.897Z,40.45
2019-03-30T08:08:20.393Z,39.75
2019-03-30T08:10:52.641Z,39.67
2019-03-30T08:13:24.940Z,64.40
2019-03-30T08:15:57.299Z,62.07
2019-03-30T08:18:29.624Z,53.52
2019-03-30T08:21:01.817Z,36.28
2019-03-30T08:23:40.126Z,34.87
2019-03-30T08:26:08.003Z,87.42
2019-03-30T08:28:40.208Z,42.80
2019-03-30T08:31:12.375Z,30.75
2019-03-30T08:33:44.698Z,96.13
2019-03-30T08:36:16.972Z,49.48
2019-03-30T08:38:49.484Z,61.85
2019-03-30T08:41:21.746Z,37.83
2019-03-30T08:43:54.077Z,49.88
2019-03-30T08:46:26.684Z,56.18
2019-03-30T08:48:59.214Z,38.33
2019-03-30T08:51:31.404Z,65.45
2019-03-30T08:54:04.099Z,40.15
2019-03-30T08:56:36.436Z,31.45
2019-03-30T08:59:09.254Z,30.67
2019-03-30T09:01:41.631Z,28.40
2019-03-30T09:04:14.244Z,27.67
2019-03-30T09:06:46.526Z,42.37
2019-03-30T09:09:19.359Z,40.70
2019-03-30T09:11:51.715Z,41.33
2019-03-30T09:14:24.307Z,26.97
2019-03-30T09:16:56.675Z,27.27
2019-03-30T09:19:30.079Z,47.93
2019-03-30T09:22:02.337Z,37.45
2019-03-30T09:24:34.578Z,84.15
2019-03-30T09:27:08.025Z,43.45
2019-03-30T09:29:40.337Z,73.90
2019-03-30T09:32:14.932Z,46.45
2019-03-30T09:34:47.571Z,60.37
2019-03-30T09:37:19.832Z,52.65
2019-03-30T09:39:52.749Z,26.70
2019-03-30T09:42:24.901Z,42.65
2019-03-30T09:44:57.214Z,32.05
2019-03-30T09:47:31.587Z,35.25
2019-03-30T09:50:03.928Z,25.65
2019-03-30T09:52:36.071Z,23.83
2019-03-30T09:55:09.086Z,38.20
2019-03-30T09:57:41.691Z,25.35
2019-03-30T10:00:14.071Z,27.07
2019-03-30T10:02:46.437Z,22.30
2019-03-30T10:05:18.632Z,42.73
2019-03-30T10:07:50.823Z,27.05
2019-03-30T10:10:23.443Z,30.25
2019-03-30T10:12:55.889Z,27.32
2019-03-30T10:15:28.091Z,26.87
2019-03-30T10:18:00.342Z,30.57
2019-03-30T10:20:32.658Z,34.30
2019-03-30T10:23:05.054Z,34.48
2019-03-30T10:25:37.274Z,25.40
2019-03-30T10:28:09.567Z,48.00
2019-03-30T10:30:42.165Z,30.60
2019-03-30T10:33:14.421Z,22.22
2019-03-30T10:35:46.699Z,26.02
2019-03-30T10:38:19.239Z,20.77
2019-03-30T10:40:51.625Z,37.17
2019-03-30T10:43:23.778Z,32.98
2019-03-30T10:45:56.241Z,45.77
2019-03-30T10:48:30.614Z,36.90
2019-03-30T10:51:02.939Z,25.32
2019-03-30T10:53:36.208Z,31.55
2019-03-30T10:56:08.612Z,25.33
2019-03-30T10:58:40.771Z,31.40
2019-03-30T11:01:13.067Z,23.85
2019-03-30T11:03:45.369Z,32.42
2019-03-30T11:06:20.262Z,38.13
2019-03-30T11:08:55.343Z,34.00
2019-03-30T11:11:27.952Z,39.83
2019-03-30T11:14:00.310Z,28.00
2019-03-30T11:16:33.923Z,28.67
2019-03-30T11:19:06.386Z,28.53
2019-03-30T11:21:40.068Z,31.23
2019-03-30T11:24:12.344Z,40.60
2019-03-30T11:26:44.658Z,34.88
2019-03-30T11:29:16.947Z,35.10
2019-03-30T11:31:50.937Z,35.28
2019-03-30T11:34:23.017Z,43.25
2019-03-30T11:36:55.329Z,42.35
2019-03-30T11:39:27.619Z,41.00
2019-03-30T11:41:59.952Z,36.42
2019-03-30T11:44:32.244Z,49.15
2019-03-30T11:47:04.558Z,49.75
2019-03-30T11:49:38.561Z,57.20
2019-03-30T11:52:10.860Z,51.47
2019-03-30T11:54:43.034Z,52.05
2019-03-30T11:57:15.236Z,54.95
2019-03-30T11:59:47.565Z,64.70
2019-03-30T12:02:27.899Z,41.98
2019-03-30T12:04:53.610Z,47.07
2019-03-30T12:07:25.934Z,46.92
2019-03-30T12:09:58.112Z,41.15
2019-03-30T12:12:30.488Z,46.08
2019-03-30T12:15:02.715Z,40.95
2019-03-30T12:17:35.019Z,39.00
2019-03-30T12:20:08.474Z,51.73
2019-03-30T12:22:40.762Z,47.30
2019-03-30T12:25:12.893Z,43.23
2019-03-30T12:27:45.471Z,42.25
2019-03-30T12:30:17.695Z,39.60
2019-03-30T12:32:49.990Z,41.33
2019-03-30T12:35:22.321Z,39.60
2019-03-30T12:37:55.313Z,50.15
2019-03-30T12:40:27.572Z,43.73
2019-03-30T12:43:00.056Z,54.00
2019-03-30T12:45:32.561Z,45.83
2019-03-30T12:48:05.450Z,35.00
2019-03-30T12:50:39.930Z,35.23
2019-03-30T12:53:12.262Z,32.20
2019-03-30T12:55:49.410Z,33.80
2019-03-30T12:58:18.026Z,32.77
2019-03-30T13:00:50.992Z,38.02
2019-03-30T13:03:23.580Z,34.65
2019-03-30T13:05:55.695Z,35.20
2019-03-30T13:08:27.979Z,35.20
2019-03-30T13:11:00.190Z,38.75
2019-03-30T13:13:32.623Z,35.30
2019-03-30T13:16:04.783Z,43.87
2019-03-30T13:18:37.163Z,42.67
2019-03-30T13:21:09.276Z,47.98
2019-03-30T13:23:42.436Z,42.88
2019-03-30T13:26:14.669Z,41.07
2019-03-30T13:28:47.185Z,67.90
2019-03-30T13:31:20.532Z,63.35
2019-03-30T13:33:52.792Z,71.72
2019-03-30T13:36:26.238Z,58.58
2019-03-30T13:38:58.579Z,67.27
2019-03-30T13:41:30.964Z,92.03
2019-03-30T13:44:03.334Z,67.83
2019-03-30T13:46:35.616Z,57.83
2019-03-30T13:49:07.968Z,66.30
2019-03-30T13:51:42.803Z,62.03
2019-03-30T13:54:16.048Z,62.35
2019-03-30T13:56:48.308Z,54.70
2019-03-30T13:59:20.609Z,75.90
2019-03-30T14:01:52.854Z,88.80
2019-03-30T14:04:25.156Z,76.20
2019-03-30T14:06:57.418Z,85.45
2019-03-30T14:09:29.693Z,73.40
2019-03-30T14:12:01.852Z,83.22
2019-03-30T14:14:34.590Z,89.80
2019-03-30T14:17:07.042Z,80.42
2019-03-30T14:19:40.011Z,88.12
2019-03-30T14:22:12.290Z,61.08
2019-03-30T14:24:45.004Z,71.90
2019-03-30T14:27:17.378Z,76.02
2019-03-30T14:29:50.251Z,68.28
2019-03-30T14:32:22.483Z,58.78
2019-03-30T14:34:54.776Z,46.20
2019-03-30T14:37:28.060Z,53.50
2019-03-30T14:40:00.463Z,44.57
2019-03-30T14:42:32.703Z,46.33
2019-03-30T14:45:05.530Z,49.23
2019-03-30T14:47:38.799Z,89.75
2019-03-30T14:50:11.349Z,66.57
2019-03-30T14:52:46.275Z,71.42
2019-03-30T14:55:19.456Z,77.80
2019-03-30T14:57:51.757Z,53.10
2019-03-30T15:00:24.006Z,47.48
2019-03-30T15:02:56.346Z,55.20
2019-03-30T15:05:28.831Z,70.25
2019-03-30T15:08:02.140Z,118.42
2019-03-30T15:10:34.500Z,51.80
2019-03-30T15:13:06.762Z,66.23
2019-03-30T15:15:39.233Z,93.12
2019-03-30T15:18:11.471Z,81.97
2019-03-30T15:20:43.744Z,67.47
2019-03-30T15:23:16.027Z,67.17
2019-03-30T15:25:48.380Z,74.30
2019-03-30T15:28:20.733Z,77.60
2019-03-30T15:30:53.012Z,68.52
2019-03-30T15:33:25.293Z,67.40
2019-03-30T15:35:57.720Z,87.53
2019-03-30T15:38:30.134Z,69.47
2019-03-30T15:41:03.414Z,132.03
2019-03-30T15:43:38.502Z,80.93
2019-03-30T15:46:09.468Z,71.17
2019-03-30T15:48:41.610Z,74.00
2019-03-30T15:51:13.794Z,66.53
2019-03-30T15:53:48.659Z,65.47
2019-03-30T15:56:20.927Z,56.05
2019-03-30T15:58:53.302Z,77.17
2019-03-30T16:01:25.680Z,81.50
2019-03-30T16:03:58.047Z,94.55
2019-03-30T16:06:30.212Z,68.67
2019-03-30T16:09:02.467Z,76.10
2019-03-30T16:11:35.743Z,57.83
2019-03-30T16:14:07.997Z,50.83
2019-03-30T16:16:40.486Z,62.93
2019-03-30T16:19:12.649Z,55.58
2019-03-30T16:21:44.927Z,51.73
2019-03-30T16:24:17.491Z,51.43
2019-03-30T16:26:49.968Z,71.28
2019-03-30T16:29:22.119Z,60.35
2019-03-30T16:31:54.746Z,67.10
2019-03-30T16:34:27.105Z,73.07
2019-03-30T16:36:59.406Z,66.40
2019-03-30T16:39:34.666Z,92.80
2019-03-30T16:42:05.375Z,68.77
2019-03-30T16:44:37.733Z,75.12
2019-03-30T16:47:10.650Z,67.10
2019-03-30T16:49:42.882Z,69.22
2019-03-30T16:52:15.177Z,65.07
2019-03-30T16:54:49.576Z,84.87
2019-03-30T16:57:22.256Z,72.10
2019-03-30T16:59:54.494Z,72.87
2019-03-30T17:02:26.700Z,100.38
2019-03-30T17:04:59.369Z,60.50
2019-03-30T17:07:31.679Z,60.48
2019-03-30T17:10:04.057Z,91.82
2019-03-30T17:12:36.336Z,77.47
2019-03-30T17:15:09.157Z,73.12
2019-03-30T17:17:41.723Z,61.40
2019-03-30T17:20:14.006Z,60.98
2019-03-30T17:22:46.295Z,81.00
2019-03-30T17:25:18.513Z,81.25
2019-03-30T17:27:58.025Z,87.43
2019-03-30T17:30:24.477Z,88.12
2019-03-30T17:32:56.765Z,81.78
2019-03-30T17:35:28.907Z,77.78
2019-03-30T17:38:01.221Z,84.90
2019-03-30T17:40:33.544Z,66.82
2019-03-30T17:43:05.713Z,63.55
2019-03-30T17:45:37.853Z,55.67
2019-03-30T17:48:10.460Z,55.40
2019-03-30T17:50:42.701Z,78.02
2019-03-30T17:53:14.984Z,95.38
2019-03-30T17:55:48.531Z,83.97
2019-03-30T17:58:22.011Z,76.70
2019-03-30T18:00:54.306Z,78.70
2019-03-30T18:03:26.573Z,63.52
2019-03-30T18:05:58.852Z,66.10
2019-03-30T18:08:31.188Z,80.17
2019-03-30T18:11:04.285Z,92.03
2019-03-30T18:13:36.951Z,69.60
2019-03-30T18:16:09.431Z,62.30
2019-03-30T18:18:41.897Z,72.67
2019-03-30T18:21:14.079Z,71.72
2019-03-30T18:23:47.622Z,88.20
2019-03-30T18:26:21.079Z,66.87
2019-03-30T18:28:53.785Z,78.57
2019-03-30T18:31:26.468Z,71.37
2019-03-30T18:33:58.942Z,67.32
2019-03-30T18:36:31.579Z,85.15
2019-03-30T18:39:09.692Z,66.05
2019-03-30T18:41:37.576Z,70.62
2019-03-30T18:44:09.856Z,81.25
2019-03-30T18:46:42.178Z,99.50
2019-03-30T18:49:14.623Z,79.58
2019-03-30T18:51:48.000Z,59.67
2019-03-30T18:54:20.486Z,65.17
2019-03-30T18:56:55.283Z,61.80
2019-03-30T18:59:27.581Z,66.53
2019-03-30T19:01:59.706Z,74.47
2019-03-30T19:04:31.982Z,96.57
2019-03-30T19:07:04.111Z,78.57
2019-03-30T19:09:36.421Z,85.15
2019-03-30T19:12:08.647Z,82.72
2019-03-30T19:14:40.955Z,64.87
2019-03-30T19:17:13.176Z,115.70
2019-03-30T19:19:45.669Z,62.77
2019-03-30T19:22:18.100Z,66.90
2019-03-30T19:24:50.393Z,69.75
2019-03-30T19:27:22.751Z,65.47
2019-03-30T19:29:55.040Z,81.05
2019-03-30T19:32:27.308Z,99.55
2019-03-30T19:34:59.921Z,109.60
2019-03-30T19:37:32.180Z,103.75
2019-03-30T19:40:04.473Z,67.87
2019-03-30T19:42:36.716Z,66.72
2019-03-30T19:45:10.112Z,128.83
2019-03-30T19:47:42.240Z,91.17
2019-03-30T19:50:14.584Z,91.10
2019-03-30T19:52:46.826Z,86.72
2019-03-30T19:55:19.010Z,126.67
2019-03-30T19:57:53.724Z,102.07
2019-03-30T20:00:26.025Z,92.00
2019-03-30T20:02:58.464Z,110.42
2019-03-30T20:05:30.752Z,85.00
2019-03-30T20:08:11.938Z,66.53
2019-03-30T20:10:36.691Z,70.12
2019-03-30T20:13:09.409Z,70.05
2019-03-30T20:15:41.515Z,80.30
2019-03-30T20:18:13.663Z,87.70
2019-03-30T20:20:46.110Z,87.07
2019-03-30T20:23:18.259Z,85.03
2019-03-30T20:25:50.645Z,112.60
2019-03-30T20:28:22.695Z,104.23
2019-03-30T20:30:55.202Z,81.95
2019-03-30T20:33:27.448Z,97.57
2019-03-30T20:35:59.831Z,79.95
2019-03-30T20:38:32.180Z,82.93
2019-03-30T20:41:04.664Z,105.10
2019-03-30T20:43:37.035Z,81.70
2019-03-30T20:46:09.404Z,94.17
2019-03-30T20:48:41.537Z,86.60
2019-03-30T20:51:14.074Z,88.52
2019-03-30T20:53:46.333Z,112.00
2019-03-30T20:56:18.641Z,98.92
2019-03-30T20:58:52.616Z,90.00
2019-03-30T21:01:24.913Z,97.17
2019-03-30T21:03:57.157Z,107.00
2019-03-30T21:06:29.542Z,93.40
2019-03-30T21:09:01.977Z,99.90
2019-03-30T21:11:35.810Z,97.80
2019-03-30T21:14:08.135Z,105.47
2019-03-30T21:16:40.566Z,162.88
2019-03-30T21:19:13.022Z,114.85
2019-03-30T21:21:45.457Z,155.95
2019-03-30T21:24:17.623Z,96.00
2019-03-30T21:26:49.897Z,129.10
2019-03-30T21:29:22.459Z,88.07
2019-03-30T21:31:54.830Z,91.72
2019-03-30T21:34:28.128Z,108.07
2019-03-30T21:37:00.417Z,90.37
2019-03-30T21:39:32.710Z,88.35
2019-03-30T21:42:04.996Z,119.65
2019-03-30T21:44:37.238Z,109.83
2019-03-30T21:47:09.643Z,96.10
2019-03-30T21:49:43.120Z,149.90
2019-03-30T21:52:15.556Z,89.20
2019-03-30T21:54:47.742Z,103.42
2019-03-30T21:57:20.129Z,90.32
2019-03-30T22:00:08.782Z,101.27
2019-03-30T22:02:27.756Z,122.22
2019-03-30T22:04:59.904Z,109.75
2019-03-30T22:07:32.151Z,122.00
2019-03-30T22:10:04.997Z,130.05
2019-03-30T22:12:37.446Z,138.60
2019-03-30T22:15:09.591Z,105.37
2019-03-30T22:17:42.857Z,113.97
2019-03-30T22:20:14.981Z,138.85
2019-03-30T22:22:47.683Z,112.00
2019-03-30T22:25:19.962Z,96.67
2019-03-30T22:27:52.238Z,124.40
2019-03-30T22:30:25.449Z,94.95
2019-03-30T22:32:57.932Z,131.90
2019-03-30T22:35:30.179Z,85.07
2019-03-30T22:38:02.613Z,95.90
2019-03-30T22:40:34.743Z,88.93
2019-03-30T22:43:07.018Z,76.65
2019-03-30T22:45:39.258Z,67.62
2019-03-30T22:48:12.561Z,87.67
2019-03-30T22:50:44.938Z,113.83
2019-03-30T22:53:17.424Z,75.78
2019-03-30T22:55:49.689Z,103.42
2019-03-30T22:58:21.957Z,83.33
2019-03-30T23:00:58.254Z,104.80
2019-03-30T23:03:30.838Z,102.07
2019-03-30T23:06:03.104Z,65.80
2019-03-30T23:08:35.548Z,77.03
2019-03-30T23:11:07.912Z,80.03
2019-03-30T23:13:40.312Z,91.30
2019-03-30T23:16:12.641Z,66.95
2019-03-30T23:18:45.464Z,77.53
2019-03-30T23:21:17.946Z,68.60
2019-03-30T23:23:50.629Z,64.42
2019-03-30T23:26:22.768Z,69.20
2019-03-30T23:28:54.965Z,63.73
2019-03-30T23:31:27.211Z,66.60
2019-03-30T23:33:59.472Z,84.45
2019-03-30T23:36:31.730Z,90.95
2019-03-30T23:39:04.132Z,76.07
2019-03-30T23:41:36.312Z,63.42
2019-03-30T23:44:08.726Z,70.00
2019-03-30T23:46:41.076Z,66.40
2019-03-30T23:49:13.414Z,64.07
2019-03-30T23:51:45.571Z,85.10
2019-03-30T23:54:18.436Z,69.32
2019-03-30T23:56:50.631Z,81.95
2019-03-30T23:59:22.867Z,53.70
